createdAt,value
2023-02-05T00:08:42.305Z,58.15
2023-02-05T00:18:45.957Z,58.29
2023-02-05T00:28:48.902Z,58.91
2023-02-05T00:38:52.207Z,57.63
2023-02-05T00:48:56.215Z,58.26
2023-02-05T00:59:00.486Z,57.37
2023-02-05T01:09:03.674Z,56.99
2023-02-05T01:19:06.573Z,59.43
2023-02-05T01:29:09.527Z,55.72
2023-02-05T01:39:12.888Z,55.68
2023-02-05T01:49:31.355Z,54.74
2023-02-05T01:59:37.334Z,55.07
2023-02-05T02:09:45.049Z,56.62
2023-02-05T02:20:00.410Z,55.63
2023-02-05T02:30:10.579Z,55.64
2023-02-05T02:40:20.365Z,54.42
2023-02-05T02:50:36.172Z,56.22
2023-02-05T03:00:40.581Z,57.13
2023-02-05T03:11:09.779Z,56.91
2023-02-05T03:21:19.308Z,58.00
2023-02-05T03:31:58.755Z,58.99
2023-02-05T03:42:10.017Z,59.13
2023-02-05T03:52:18.616Z,61.07
2023-02-05T04:02:22.511Z,59.72
2023-02-05T04:12:25.581Z,59.46
2023-02-05T04:22:29.119Z,59.25
2023-02-05T04:32:32.038Z,58.66
2023-02-05T04:42:35.244Z,59.05
2023-02-05T04:52:38.377Z,61.14
2023-02-05T05:02:41.276Z,65.57
2023-02-05T05:12:44.019Z,65.10
2023-02-05T05:22:47.171Z,64.83
2023-02-05T05:32:49.995Z,66.29
2023-02-05T05:43:13.768Z,66.72
2023-02-05T05:53:16.598Z,65.53
2023-02-05T06:03:19.242Z,66.22
2023-02-05T06:13:22.239Z,65.20
2023-02-05T06:23:24.947Z,63.85
2023-02-05T06:33:28.231Z,67.03
2023-02-05T06:43:31.215Z,65.71
2023-02-05T06:53:34.231Z,66.15
2023-02-05T07:03:37.146Z,66.36
2023-02-05T07:13:39.804Z,66.80
2023-02-05T07:23:42.634Z,68.01
2023-02-05T07:33:46.677Z,65.50
2023-02-05T07:43:53.639Z,67.70
2023-02-05T07:53:56.685Z,70.24
2023-02-05T08:03:59.818Z,68.09
2023-02-05T08:14:03.307Z,68.78
2023-02-05T08:24:06.619Z,67.90
2023-02-05T08:34:10.471Z,68.43
2023-02-05T08:44:13.566Z,66.86
2023-02-05T08:54:16.757Z,68.96
2023-02-05T09:04:22.156Z,72.55
2023-02-05T09:14:25.208Z,72.41
2023-02-05T09:24:28.368Z,69.42
2023-02-05T09:34:32.896Z,68.26
2023-02-05T09:44:42.059Z,68.37
2023-02-05T09:54:48.781Z,69.72
2023-02-05T10:04:55.093Z,68.10
2023-02-05T10:15:10.173Z,67.05
2023-02-05T10:25:32.093Z,69.13
2023-02-05T10:35:59.921Z,71.92
2023-02-05T10:46:02.936Z,71.64
2023-02-05T10:56:06.900Z,68.03
2023-02-05T11:06:11.804Z,71.26
2023-02-05T11:16:15.782Z,68.92
2023-02-05T11:26:21.352Z,71.17
2023-02-05T11:36:25.471Z,69.31
2023-02-05T11:46:42.564Z,72.50
2023-02-05T11:57:17.786Z,68.98
2023-02-05T12:07:22.294Z,71.20
2023-02-05T12:17:41.988Z,70.38
2023-02-05T12:28:22.462Z,68.99
2023-02-05T12:38:43.527Z,68.12
2023-02-05T12:49:12.032Z,67.68
2023-02-05T12:59:28.065Z,67.84
2023-02-05T13:10:02.323Z,66.51
2023-02-05T13:20:08.445Z,66.35
2023-02-05T13:30:21.974Z,67.87
2023-02-05T13:40:30.422Z,66.72
2023-02-05T13:50:42.643Z,68.05
2023-02-05T14:00:49.544Z,67.48
2023-02-05T14:11:04.275Z,64.92
2023-02-05T14:21:31.702Z,64.04
2023-02-05T14:31:48.916Z,65.06
2023-02-05T14:41:59.425Z,66.69
2023-02-05T14:52:17.055Z,64.10
2023-02-05T15:02:58.851Z,62.81
2023-02-05T15:13:29.483Z,61.01
2023-02-05T15:23:36.381Z,61.00
2023-02-05T15:34:03.578Z,59.94
2023-02-05T15:44:20.339Z,59.03
2023-02-05T15:54:27.550Z,59.22
2023-02-05T16:04:35.562Z,57.18
2023-02-05T16:14:38.027Z,58.84
2023-02-05T16:24:43.034Z,58.13
2023-02-05T16:34:45.953Z,55.88
2023-02-05T16:44:50.004Z,55.70
2023-02-05T16:54:53.159Z,57.88
2023-02-05T17:04:58.063Z,56.26
2023-02-05T17:15:23.651Z,56.09
2023-02-05T17:25:37.703Z,54.80
2023-02-05T17:35:40.662Z,54.02
2023-02-05T17:45:45.940Z,53.26
2023-02-05T17:55:49.138Z,53.92
2023-02-05T18:05:52.938Z,54.09
2023-02-05T18:16:01.708Z,54.43
2023-02-05T18:26:06.603Z,53.79
2023-02-05T18:36:12.536Z,54.00
2023-02-05T18:46:21.277Z,54.39
2023-02-05T18:56:25.937Z,55.27
2023-02-05T19:06:28.339Z,54.54
2023-02-05T19:16:32.526Z,53.78
2023-02-05T19:26:36.746Z,55.39
2023-02-05T19:36:39.289Z,54.68
2023-02-05T19:46:44.308Z,54.27
2023-02-05T19:56:46.972Z,54.89
2023-02-05T20:06:49.582Z,52.65
2023-02-05T20:16:53.049Z,52.98
2023-02-05T20:26:56.796Z,52.64
2023-02-05T20:37:04.387Z,53.12
2023-02-05T20:47:08.503Z,56.03
2023-02-05T20:57:10.668Z,53.57
2023-02-05T21:07:13.128Z,54.84
2023-02-05T21:17:15.533Z,53.11
2023-02-05T21:27:17.620Z,55.19
2023-02-05T21:37:19.750Z,54.77
2023-02-05T21:47:22.141Z,55.20
2023-02-05T21:57:24.907Z,53.24
2023-02-05T22:07:27.025Z,54.48
2023-02-05T22:17:29.348Z,54.97
2023-02-05T22:27:31.978Z,54.60
2023-02-05T22:37:34.056Z,54.61
2023-02-05T22:47:36.492Z,55.72
2023-02-05T22:57:39.801Z,55.54
2023-02-05T23:07:42.072Z,56.42
2023-02-05T23:17:44.700Z,55.17
2023-02-05T23:27:47.135Z,55.64
2023-02-05T23:37:49.588Z,57.70
2023-02-05T23:47:51.773Z,56.09
2023-02-05T23:57:54.163Z,57.20
